createdAt,value
2018-06-22T00:01:39.375Z,1.50
2018-06-22T00:04:07.290Z,1.70
2018-06-22T00:06:35.205Z,2.00
2018-06-22T00:09:04.016Z,2.07
2018-06-22T00:11:31.585Z,1.40
2018-06-22T00:13:59.127Z,1.70
2018-06-22T00:16:26.711Z,1.50
2018-06-22T00:18:58.767Z,1.43
2018-06-22T00:21:26.311Z,1.20
2018-06-22T00:23:53.856Z,1.30
2018-06-22T00:26:21.912Z,1.80
2018-06-22T00:28:49.461Z,1.33
2018-06-22T00:31:16.994Z,1.60
2018-06-22T00:33:44.621Z,2.30
2018-06-22T00:36:12.174Z,1.70
2018-06-22T00:38:39.819Z,1.40
2018-06-22T00:41:07.352Z,1.52
2018-06-22T00:43:34.935Z,1.60
2018-06-22T00:46:02.527Z,1.80
2018-06-22T00:48:30.114Z,1.40
2018-06-22T00:50:57.671Z,1.90
2018-06-22T00:53:36.508Z,1.72
2018-06-22T00:56:04.058Z,2.05
2018-06-22T00:58:31.615Z,2.05
2018-06-22T01:00:59.215Z,1.72
2018-06-22T01:03:26.790Z,1.60
2018-06-22T01:05:54.361Z,1.62
2018-06-22T01:08:21.976Z,1.85
2018-06-22T01:10:49.557Z,1.30
2018-06-22T01:13:17.134Z,1.60
2018-06-22T01:15:46.291Z,1.60
2018-06-22T01:18:13.872Z,1.52
2018-06-22T01:20:42.110Z,1.35
2018-06-22T01:23:09.700Z,2.10
2018-06-22T01:25:37.268Z,1.55
2018-06-22T01:28:04.815Z,1.45
2018-06-22T01:30:32.416Z,1.60
2018-06-22T01:33:00.000Z,1.50
2018-06-22T01:35:27.651Z,2.10
2018-06-22T01:37:55.230Z,1.92
2018-06-22T01:40:22.822Z,1.42
2018-06-22T01:42:50.376Z,1.90
2018-06-22T01:45:17.987Z,1.42
2018-06-22T01:47:45.524Z,1.65
2018-06-22T01:50:13.059Z,1.90
2018-06-22T01:52:40.627Z,1.80
2018-06-22T01:55:08.203Z,1.40
2018-06-22T01:57:35.739Z,1.50
2018-06-22T02:00:03.378Z,1.35
2018-06-22T02:02:30.977Z,1.55
2018-06-22T02:04:58.553Z,1.60
2018-06-22T02:07:26.137Z,1.72
2018-06-22T02:09:54.226Z,2.20
2018-06-22T02:12:21.797Z,2.37
2018-06-22T02:14:49.445Z,2.15
2018-06-22T02:17:17.051Z,1.75
2018-06-22T02:19:44.523Z,2.10
2018-06-22T02:22:12.022Z,2.12
2018-06-22T02:24:39.646Z,1.70
2018-06-22T02:27:07.252Z,1.65
2018-06-22T02:29:34.831Z,2.58
2018-06-22T02:32:02.404Z,1.50
2018-06-22T02:34:29.943Z,1.40
2018-06-22T02:36:57.559Z,1.45
2018-06-22T02:39:25.221Z,2.08
2018-06-22T02:41:52.778Z,1.98
2018-06-22T02:44:20.404Z,1.80
2018-06-22T02:46:47.960Z,1.60
2018-06-22T02:49:16.105Z,1.45
2018-06-22T02:51:43.680Z,1.80
2018-06-22T02:54:11.332Z,1.60
2018-06-22T02:56:38.888Z,1.95
2018-06-22T02:59:06.456Z,1.80
2018-06-22T03:01:34.644Z,1.90
2018-06-22T03:04:02.827Z,1.55
2018-06-22T03:06:30.377Z,1.67
2018-06-22T03:08:57.935Z,2.08
2018-06-22T03:11:25.498Z,1.80
2018-06-22T03:13:53.068Z,1.32
2018-06-22T03:16:20.548Z,1.70
2018-06-22T03:18:48.091Z,1.87
2018-06-22T03:21:15.678Z,2.08
2018-06-22T03:23:43.265Z,2.02
2018-06-22T03:26:10.834Z,2.35
2018-06-22T03:28:38.406Z,1.62
2018-06-22T03:31:06.664Z,1.47
2018-06-22T03:33:34.247Z,2.22
2018-06-22T03:36:01.803Z,1.95
2018-06-22T03:38:29.411Z,2.20
2018-06-22T03:40:57.026Z,2.55
2018-06-22T03:43:24.589Z,2.20
2018-06-22T03:45:53.065Z,2.55
2018-06-22T03:48:20.605Z,1.65
2018-06-22T03:50:48.193Z,2.55
2018-06-22T03:53:15.730Z,2.12
2018-06-22T03:55:43.307Z,2.17
2018-06-22T03:58:10.908Z,2.35
2018-06-22T04:00:38.440Z,2.05
2018-06-22T04:03:06.007Z,2.17
2018-06-22T04:05:34.830Z,2.62
2018-06-22T04:08:04.191Z,2.55
2018-06-22T04:10:31.749Z,2.15
2018-06-22T04:12:59.876Z,2.10
2018-06-22T04:15:27.425Z,2.10
2018-06-22T04:17:55.124Z,1.92
2018-06-22T04:20:23.805Z,2.08
2018-06-22T04:22:51.776Z,2.77
2018-06-22T04:25:20.560Z,2.60
2018-06-22T04:27:48.600Z,2.58
2018-06-22T04:30:17.000Z,2.15
2018-06-22T04:32:44.715Z,2.92
2018-06-22T04:35:12.338Z,3.33
2018-06-22T04:37:40.278Z,2.60
2018-06-22T04:40:08.843Z,2.72
2018-06-22T04:42:36.567Z,2.67
2018-06-22T04:45:04.504Z,3.15
2018-06-22T04:47:32.213Z,3.00
2018-06-22T04:50:00.164Z,2.70
2018-06-22T04:52:27.738Z,2.60
2018-06-22T04:54:55.294Z,2.70
2018-06-22T04:57:24.827Z,2.70
2018-06-22T04:59:52.365Z,2.60
2018-06-22T05:02:20.066Z,2.95
2018-06-22T05:04:47.712Z,3.25
2018-06-22T05:07:15.808Z,2.98
2018-06-22T05:09:43.445Z,3.22
2018-06-22T05:12:11.018Z,2.80
2018-06-22T05:14:38.561Z,3.33
2018-06-22T05:17:06.127Z,2.22
2018-06-22T05:19:33.665Z,2.85
2018-06-22T05:22:01.206Z,2.20
2018-06-22T05:24:28.807Z,2.83
2018-06-22T05:26:57.586Z,3.05
2018-06-22T05:29:25.144Z,2.65
2018-06-22T05:31:52.685Z,2.47
2018-06-22T05:34:20.241Z,2.62
2018-06-22T05:36:47.797Z,2.50
2018-06-22T05:39:15.404Z,2.33
2018-06-22T05:41:42.968Z,2.85
2018-06-22T05:44:10.562Z,2.00
2018-06-22T05:46:38.157Z,2.27
2018-06-22T05:49:05.763Z,2.80
2018-06-22T05:51:33.375Z,1.85
2018-06-22T05:54:00.939Z,2.17
2018-06-22T05:56:28.596Z,1.95
2018-06-22T05:58:57.173Z,2.58
2018-06-22T06:01:24.707Z,2.25
2018-06-22T06:03:52.372Z,2.42
2018-06-22T06:06:19.857Z,1.75
2018-06-22T06:08:47.467Z,2.20
2018-06-22T06:11:15.107Z,2.20
2018-06-22T06:13:43.332Z,2.33
2018-06-22T06:16:10.954Z,2.40
2018-06-22T06:18:39.513Z,1.65
2018-06-22T06:21:07.142Z,2.40
2018-06-22T06:23:34.659Z,1.92
2018-06-22T06:26:02.244Z,2.05
2018-06-22T06:28:29.827Z,1.80
2018-06-22T06:30:57.704Z,2.37
2018-06-22T06:33:25.260Z,1.90
2018-06-22T06:35:52.819Z,2.17
2018-06-22T06:38:20.444Z,2.80
2018-06-22T06:40:48.101Z,2.55
2018-06-22T06:43:15.710Z,2.35
2018-06-22T06:45:43.329Z,2.67
2018-06-22T06:48:11.644Z,2.83
2018-06-22T06:50:39.251Z,2.70
2018-06-22T06:53:06.895Z,2.98
2018-06-22T06:55:34.502Z,2.45
2018-06-22T06:58:02.700Z,2.67
2018-06-22T07:00:30.274Z,2.60
2018-06-22T07:02:57.819Z,2.70
2018-06-22T07:05:25.372Z,3.02
2018-06-22T07:07:53.294Z,3.70
2018-06-22T07:10:20.860Z,3.33
2018-06-22T07:12:48.479Z,3.50
2018-06-22T07:15:16.037Z,3.20
2018-06-22T07:17:43.689Z,4.17
2018-06-22T07:20:11.307Z,4.25
2018-06-22T07:22:38.948Z,3.27
2018-06-22T07:25:06.589Z,4.37
2018-06-22T07:27:34.905Z,3.60
2018-06-22T07:30:02.533Z,4.03
2018-06-22T07:32:30.054Z,3.90
2018-06-22T07:34:57.590Z,3.60
2018-06-22T07:37:25.215Z,3.42
2018-06-22T07:39:52.831Z,3.70
2018-06-22T07:42:20.480Z,3.52
2018-06-22T07:44:48.074Z,4.45
2018-06-22T07:47:15.675Z,4.47
2018-06-22T07:49:43.327Z,3.40
2018-06-22T07:52:10.860Z,4.22
2018-06-22T07:54:38.406Z,3.23
2018-06-22T07:57:05.997Z,3.77
2018-06-22T07:59:33.612Z,4.17
2018-06-22T08:02:01.277Z,3.53
2018-06-22T08:04:28.852Z,3.80
2018-06-22T08:06:56.493Z,3.33
2018-06-22T08:09:24.261Z,3.03
2018-06-22T08:11:51.841Z,3.60
2018-06-22T08:14:19.415Z,3.43
2018-06-22T08:16:46.969Z,2.67
2018-06-22T08:19:15.433Z,3.60
2018-06-22T08:21:43.018Z,4.23
2018-06-22T08:24:11.104Z,4.07
2018-06-22T08:26:38.687Z,4.00
2018-06-22T08:29:06.277Z,3.93
2018-06-22T08:31:34.165Z,3.50
2018-06-22T08:34:01.760Z,3.10
2018-06-22T08:36:29.930Z,2.97
2018-06-22T08:38:57.465Z,2.80
2018-06-22T08:41:25.126Z,3.60
2018-06-22T08:43:53.187Z,3.63
2018-06-22T08:46:21.545Z,2.63
2018-06-22T08:48:49.158Z,2.40
2018-06-22T08:51:16.755Z,2.60
2018-06-22T08:53:44.297Z,2.00
2018-06-22T08:56:11.890Z,2.80
2018-06-22T08:58:39.469Z,2.17
2018-06-22T09:01:07.273Z,2.43
2018-06-22T09:03:34.739Z,2.10
2018-06-22T09:06:02.274Z,1.97
2018-06-22T09:08:29.866Z,2.30
2018-06-22T09:10:57.386Z,1.70
2018-06-22T09:13:25.476Z,2.03
2018-06-22T09:15:53.056Z,1.70
2018-06-22T09:18:20.692Z,1.20
2018-06-22T09:20:50.083Z,1.63
2018-06-22T09:23:17.677Z,1.50
2018-06-22T09:25:45.232Z,1.50
2018-06-22T09:28:12.848Z,1.63
2018-06-22T09:30:40.458Z,1.50
2018-06-22T09:33:07.937Z,1.30
2018-06-22T09:35:35.538Z,1.40
2018-06-22T09:38:03.160Z,1.63
2018-06-22T09:40:30.714Z,1.30
2018-06-22T09:42:58.401Z,2.10
2018-06-22T09:45:25.966Z,1.57
2018-06-22T09:47:53.562Z,1.53
2018-06-22T09:50:21.168Z,2.13
2018-06-22T09:52:48.778Z,1.43
2018-06-22T09:55:16.427Z,1.40
2018-06-22T09:57:43.983Z,1.73
2018-06-22T10:00:11.567Z,1.20
2018-06-22T10:02:39.129Z,1.47
2018-06-22T10:05:06.713Z,1.20
2018-06-22T10:07:34.277Z,1.77
2018-06-22T10:10:01.886Z,1.27
2018-06-22T10:12:29.844Z,1.10
2018-06-22T10:14:57.407Z,1.10
2018-06-22T10:17:24.971Z,1.30
2018-06-22T10:19:52.593Z,1.60
2018-06-22T10:22:20.189Z,1.50
2018-06-22T10:24:47.744Z,1.40
2018-06-22T10:27:15.399Z,1.30
2018-06-22T10:29:42.985Z,1.23
2018-06-22T10:32:10.562Z,1.20
2018-06-22T10:34:38.150Z,1.57
2018-06-22T10:37:05.732Z,1.30
2018-06-22T10:39:33.356Z,1.17
2018-06-22T10:42:00.935Z,1.50
2018-06-22T10:44:28.542Z,1.10
2018-06-22T10:46:56.149Z,1.20
2018-06-22T10:49:23.748Z,1.30
2018-06-22T10:51:51.345Z,1.67
2018-06-22T10:54:18.935Z,1.30
2018-06-22T10:56:46.556Z,1.77
2018-06-22T10:59:14.208Z,1.20
2018-06-22T11:01:43.522Z,1.20
2018-06-22T11:04:12.059Z,1.53
2018-06-22T11:06:39.682Z,1.10
2018-06-22T11:09:09.118Z,1.10
2018-06-22T11:11:36.665Z,1.10
2018-06-22T11:14:04.626Z,1.60
2018-06-22T11:16:32.100Z,1.23
2018-06-22T11:18:59.691Z,1.20
2018-06-22T11:21:27.831Z,1.10
2018-06-22T11:23:55.397Z,1.40
2018-06-22T11:26:22.964Z,0.80
2018-06-22T11:28:50.625Z,1.33
2018-06-22T11:31:18.373Z,1.13
2018-06-22T11:33:45.996Z,1.30
2018-06-22T11:36:13.621Z,1.50
2018-06-22T11:38:41.214Z,1.70
2018-06-22T11:41:08.857Z,1.23
2018-06-22T11:43:36.473Z,1.67
2018-06-22T11:46:04.094Z,1.47
2018-06-22T11:48:31.699Z,1.33
2018-06-22T11:50:59.364Z,1.40
2018-06-22T11:53:27.015Z,1.17
2018-06-22T11:55:54.565Z,1.43
2018-06-22T11:58:22.171Z,1.40
2018-06-22T12:00:49.749Z,1.20
2018-06-22T12:03:17.325Z,1.20
2018-06-22T12:05:45.588Z,1.10
2018-06-22T12:08:13.672Z,1.10
2018-06-22T12:10:41.272Z,0.90
2018-06-22T12:13:08.872Z,1.50
2018-06-22T12:15:36.448Z,0.90
2018-06-22T12:18:04.378Z,1.10
2018-06-22T12:20:31.950Z,0.90
2018-06-22T12:22:59.509Z,0.87
2018-06-22T12:25:27.147Z,1.50
2018-06-22T12:27:54.728Z,1.00
2018-06-22T12:30:22.345Z,1.30
2018-06-22T12:32:49.890Z,1.07
2018-06-22T12:35:17.438Z,1.20
2018-06-22T12:37:45.062Z,1.20
2018-06-22T12:40:12.635Z,1.70
2018-06-22T12:42:40.178Z,1.33
2018-06-22T12:45:07.851Z,1.30
2018-06-22T12:47:35.445Z,1.30
2018-06-22T12:50:02.978Z,1.50
2018-06-22T12:52:30.580Z,1.43
2018-06-22T12:54:58.305Z,1.57
2018-06-22T12:57:25.885Z,1.30
2018-06-22T12:59:53.475Z,1.57
2018-06-22T13:02:21.029Z,1.23
2018-06-22T13:04:48.618Z,1.50
2018-06-22T13:07:16.237Z,1.60
2018-06-22T13:09:43.843Z,1.53
2018-06-22T13:12:11.478Z,1.83
2018-06-22T13:14:39.071Z,1.03
2018-06-22T13:17:06.711Z,1.50
2018-06-22T13:19:34.234Z,1.57
2018-06-22T13:22:01.841Z,1.40
2018-06-22T13:24:29.410Z,1.43
2018-06-22T13:26:56.967Z,1.43
2018-06-22T13:29:24.544Z,1.43
2018-06-22T13:31:52.208Z,1.80
2018-06-22T13:34:19.817Z,1.20
2018-06-22T13:36:48.013Z,1.07
2018-06-22T13:39:16.871Z,1.40
2018-06-22T13:41:44.864Z,1.60
2018-06-22T13:44:12.478Z,1.60
2018-06-22T13:46:41.020Z,1.63
2018-06-22T13:49:09.435Z,1.60
2018-06-22T13:51:37.396Z,1.40
2018-06-22T13:54:05.137Z,1.60
2018-06-22T13:56:33.574Z,1.30
2018-06-22T13:59:01.682Z,1.43
2018-06-22T14:01:29.766Z,1.20
2018-06-22T14:04:03.025Z,1.70
2018-06-22T14:06:36.228Z,1.30
2018-06-22T14:09:06.459Z,1.03
2018-06-22T14:11:34.054Z,2.00
2018-06-22T14:14:01.659Z,1.60
2018-06-22T14:16:29.317Z,1.13
2018-06-22T14:18:56.884Z,1.30
2018-06-22T14:21:24.515Z,1.70
2018-06-22T14:23:52.160Z,1.20
2018-06-22T14:26:19.716Z,1.37
2018-06-22T14:28:47.339Z,1.53
2018-06-22T14:31:14.942Z,1.60
2018-06-22T14:33:42.577Z,1.50
2018-06-22T14:36:10.210Z,1.40
2018-06-22T14:38:37.758Z,1.73
2018-06-22T14:41:05.520Z,1.90
2018-06-22T14:43:33.142Z,1.80
2018-06-22T14:46:01.534Z,1.03
2018-06-22T14:48:29.189Z,1.40
2018-06-22T14:50:56.799Z,1.30
2018-06-22T14:53:30.048Z,1.27
2018-06-22T14:56:03.316Z,1.20
2018-06-22T14:58:36.536Z,1.20
2018-06-22T15:01:09.789Z,1.50
2018-06-22T15:03:42.944Z,1.40
2018-06-22T15:06:16.081Z,1.20
2018-06-22T15:08:43.738Z,1.23
2018-06-22T15:11:11.377Z,1.53
2018-06-22T15:13:38.964Z,1.40
2018-06-22T15:16:06.555Z,1.93
2018-06-22T15:18:34.186Z,1.47
2018-06-22T15:21:01.899Z,1.37
2018-06-22T15:23:29.543Z,1.60
2018-06-22T15:25:57.759Z,1.73
2018-06-22T15:28:25.409Z,1.83
2018-06-22T15:30:52.947Z,1.50
2018-06-22T15:33:27.171Z,1.10
2018-06-22T15:36:00.385Z,1.53
2018-06-22T15:38:33.571Z,1.13
2018-06-22T15:41:12.439Z,1.53
2018-06-22T15:43:45.679Z,1.33
2018-06-22T15:46:19.886Z,1.60
2018-06-22T15:48:53.207Z,1.73
2018-06-22T15:51:26.905Z,1.90
2018-06-22T15:54:00.099Z,1.40
2018-06-22T15:56:27.948Z,1.10
2018-06-22T15:58:56.495Z,1.50
2018-06-22T16:01:24.348Z,1.60
2018-06-22T16:03:56.188Z,1.40
2018-06-22T16:06:24.354Z,1.77
2018-06-22T16:08:52.017Z,1.10
2018-06-22T16:11:19.974Z,1.63
2018-06-22T16:13:53.240Z,1.47
2018-06-22T16:16:26.528Z,1.47
2018-06-22T16:18:59.933Z,1.00
2018-06-22T16:21:33.188Z,1.27
2018-06-22T16:24:06.209Z,1.50
2018-06-22T16:26:39.416Z,1.73
2018-06-22T16:29:07.052Z,1.50
2018-06-22T16:31:34.942Z,2.00
2018-06-22T16:34:02.563Z,1.60
2018-06-22T16:36:30.147Z,1.50
2018-06-22T16:38:58.542Z,1.50
2018-06-22T16:41:26.163Z,1.20
2018-06-22T16:43:53.813Z,1.67
2018-06-22T16:46:22.568Z,1.30
2018-06-22T16:48:50.302Z,1.23
2018-06-22T16:51:17.958Z,1.40
2018-06-22T16:53:45.613Z,1.70
2018-06-22T16:56:13.249Z,2.00
2018-06-22T16:58:41.019Z,1.70
2018-06-22T17:01:10.391Z,1.33
2018-06-22T17:03:38.020Z,1.40
2018-06-22T17:06:06.488Z,1.50
2018-06-22T17:08:39.703Z,1.60
2018-06-22T17:11:12.946Z,2.30
2018-06-22T17:13:46.131Z,1.50
2018-06-22T17:16:19.313Z,1.33
2018-06-22T17:18:55.498Z,1.73
2018-06-22T17:21:23.143Z,1.50
2018-06-22T17:23:51.185Z,1.07
2018-06-22T17:26:18.849Z,1.67
2018-06-22T17:28:46.745Z,1.60
2018-06-22T17:31:15.360Z,1.30
2018-06-22T17:33:42.993Z,1.67
2018-06-22T17:36:10.661Z,1.63
2018-06-22T17:38:38.261Z,1.30
2018-06-22T17:41:05.919Z,1.50
2018-06-22T17:43:33.588Z,1.60
2018-06-22T17:46:01.292Z,1.40
2018-06-22T17:48:28.905Z,1.47
2018-06-22T17:50:56.506Z,1.70
2018-06-22T17:53:24.153Z,2.13
2018-06-22T17:55:51.896Z,1.50
2018-06-22T17:58:19.611Z,1.30
2018-06-22T18:00:52.690Z,1.90
2018-06-22T18:03:25.875Z,1.60
2018-06-22T18:05:59.014Z,1.40
2018-06-22T18:08:32.331Z,1.60
2018-06-22T18:13:09.169Z,1.63
2018-06-22T18:15:36.798Z,1.47
2018-06-22T18:18:04.498Z,1.60
2018-06-22T18:20:32.206Z,1.43
2018-06-22T18:22:59.789Z,1.23
2018-06-22T18:25:27.496Z,1.70
2018-06-22T18:27:55.081Z,1.20
2018-06-22T18:30:22.703Z,1.90
2018-06-22T18:32:50.340Z,1.50
2018-06-22T18:35:17.993Z,1.70
2018-06-22T18:37:45.633Z,1.57
2018-06-22T18:40:13.281Z,1.70
2018-06-22T18:42:40.999Z,1.70
2018-06-22T18:45:09.850Z,1.67
2018-06-22T18:47:37.475Z,1.90
2018-06-22T18:50:05.289Z,1.53
2018-06-22T18:52:39.414Z,1.60
2018-06-22T18:55:12.587Z,1.80
2018-06-22T18:57:45.900Z,1.67
2018-06-22T19:00:19.152Z,1.63
2018-06-22T19:02:52.373Z,1.67
2018-06-22T19:05:20.031Z,1.37
2018-06-22T19:07:47.708Z,1.60
2018-06-22T19:10:15.516Z,1.97
2018-06-22T19:12:43.296Z,1.43
2018-06-22T19:15:11.118Z,1.87
2018-06-22T19:17:38.814Z,1.40
2018-06-22T19:20:06.868Z,1.50
2018-06-22T19:22:34.582Z,2.10
2018-06-22T19:25:02.286Z,1.67
2018-06-22T19:27:29.998Z,2.37
2018-06-22T19:29:57.735Z,2.00
2018-06-22T19:32:26.430Z,1.87
2018-06-22T19:34:59.675Z,1.77
2018-06-22T19:37:27.389Z,2.00
2018-06-22T19:39:54.991Z,2.20
2018-06-22T19:42:22.675Z,1.97
2018-06-22T19:44:55.911Z,1.60
2018-06-22T19:47:29.116Z,2.10
2018-06-22T19:50:02.371Z,2.03
2018-06-22T19:52:35.612Z,2.17
2018-06-22T19:55:03.332Z,2.33
2018-06-22T19:57:31.010Z,1.87
2018-06-22T19:59:58.602Z,2.00
2018-06-22T20:02:26.244Z,2.20
2018-06-22T20:04:53.856Z,2.60
2018-06-22T20:07:21.467Z,2.57
2018-06-22T20:09:49.742Z,2.50
2018-06-22T20:12:17.391Z,2.50
2018-06-22T20:14:45.045Z,2.30
2018-06-22T20:17:12.702Z,2.20
2018-06-22T20:19:40.372Z,2.17
2018-06-22T20:22:08.054Z,2.00
2018-06-22T20:24:41.408Z,2.70
2018-06-22T20:27:09.089Z,2.30
2018-06-22T20:29:36.681Z,2.47
2018-06-22T20:32:07.799Z,2.43
2018-06-22T20:34:42.560Z,2.27
2018-06-22T20:37:15.908Z,3.07
2018-06-22T20:39:48.996Z,2.80
2018-06-22T20:42:22.317Z,2.63
2018-06-22T20:44:55.493Z,2.53
2018-06-22T20:47:28.725Z,2.30
2018-06-22T20:50:02.081Z,2.47
2018-06-22T20:52:29.768Z,2.20
2018-06-22T20:54:57.353Z,2.50
2018-06-22T20:57:25.048Z,2.58
2018-06-22T20:59:52.774Z,2.27
2018-06-22T21:02:20.375Z,2.10
2018-06-22T21:04:48.044Z,2.37
2018-06-22T21:07:15.604Z,2.65
2018-06-22T21:09:43.788Z,1.95
2018-06-22T21:12:11.428Z,2.60
2018-06-22T21:14:39.068Z,2.95
2018-06-22T21:17:06.670Z,2.77
2018-06-22T21:19:34.259Z,2.95
2018-06-22T21:22:07.431Z,2.47
2018-06-22T21:24:35.162Z,2.90
2018-06-22T21:27:08.382Z,2.65
2018-06-22T21:29:41.713Z,3.47
2018-06-22T21:32:15.011Z,2.42
2018-06-22T21:34:48.910Z,2.55
2018-06-22T21:37:22.238Z,2.67
2018-06-22T21:39:49.903Z,2.65
2018-06-22T21:42:18.549Z,3.10
2018-06-22T21:44:46.174Z,2.87
2018-06-22T21:47:13.751Z,2.60
2018-06-22T21:49:41.726Z,2.75
2018-06-22T21:52:10.253Z,2.77
2018-06-22T21:54:37.896Z,2.98
2018-06-22T21:57:06.509Z,2.55
2018-06-22T21:59:34.188Z,3.05
2018-06-22T22:02:01.970Z,3.42
2018-06-22T22:04:29.696Z,2.80
2018-06-22T22:06:57.276Z,2.80
2018-06-22T22:09:25.032Z,3.00
2018-06-22T22:11:52.604Z,2.98
2018-06-22T22:14:20.908Z,2.85
2018-06-22T22:16:48.552Z,2.90
2018-06-22T22:19:16.135Z,3.10
2018-06-22T22:21:43.793Z,3.25
2018-06-22T22:24:11.378Z,2.58
2018-06-22T22:26:39.058Z,2.72
2018-06-22T22:29:07.517Z,2.92
2018-06-22T22:31:35.097Z,2.75
2018-06-22T22:34:02.694Z,2.90
2018-06-22T22:36:30.291Z,2.85
2018-06-22T22:38:57.858Z,2.92
2018-06-22T22:41:25.409Z,3.67
2018-06-22T22:43:53.043Z,3.50
2018-06-22T22:46:21.306Z,3.05
2018-06-22T22:48:48.902Z,3.10
2018-06-22T22:51:16.521Z,2.87
2018-06-22T22:53:44.046Z,3.20
2018-06-22T22:56:11.651Z,3.47
2018-06-22T22:58:39.206Z,3.08
2018-06-22T23:01:06.824Z,2.80
2018-06-22T23:03:34.447Z,2.67
2018-06-22T23:06:02.014Z,2.90
2018-06-22T23:08:29.612Z,2.33
2018-06-22T23:10:57.220Z,3.42
2018-06-22T23:13:24.803Z,2.52
2018-06-22T23:15:52.400Z,2.72
2018-06-22T23:18:20.157Z,3.55
2018-06-22T23:20:47.778Z,2.75
2018-06-22T23:23:27.718Z,3.05
2018-06-22T23:25:55.265Z,3.33
2018-06-22T23:28:22.852Z,2.90
2018-06-22T23:30:50.445Z,3.20
2018-06-22T23:33:18.026Z,2.87
2018-06-22T23:35:45.585Z,3.25
2018-06-22T23:38:13.149Z,3.02
2018-06-22T23:40:40.808Z,2.60
2018-06-22T23:43:08.342Z,3.35
2018-06-22T23:45:35.927Z,2.52
2018-06-22T23:48:03.639Z,2.50
2018-06-22T23:50:31.310Z,3.00
2018-06-22T23:52:58.909Z,2.60
2018-06-22T23:55:27.131Z,3.27
2018-06-22T23:57:54.684Z,3.17
